This is the latest recevied weather packets stored in our database for station/object KI4MRC. If no packets are shown the sender has not sent any weather packets the latest 10 day(s).
| Time | Temp. | Humidity | Pressure | Rain* | Wind** | Luminosity | Snow |
|---|---|---|---|---|---|---|---|
| 1777482448 | 31.11° C | 53% | 1016.3 hPa | 0 mm | - | 555 W/m² | - |
| 1777482146 | 31.67° C | 49% | 1016.4 hPa | 0 mm | - | 1144 W/m² | - |
| 1777481844 | 31.11° C | 48% | 1016.5 hPa | 0 mm | - | 1141 W/m² | - |
| 1777481541 | 31.67° C | 48% | 1016.6 hPa | 0 mm | - | 884 W/m² | - |
| 1777481237 | 31.11° C | 48% | 1016.6 hPa | 0 mm | - | 999 W/m² | - |
| 1777480934 | 30.56° C | 51% | 1016.7 hPa | 0 mm | - | 1166 W/m² | - |
| 1777480630 | 31.11° C | 49% | 1016.7 hPa | 0 mm | - | 374 W/m² | - |
| 1777480328 | 30.56° C | 50% | 1016.7 hPa | 0 mm | - | 1122 W/m² | - |
| 1777480023 | 30.56° C | 54% | 1016.8 hPa | 0 mm | - | 919 W/m² | - |
| 1777479720 | 30.56° C | 50% | 1016.7 hPa | 0 mm | - | 640 W/m² | - |
| 1777479418 | 30.56° C | 53% | 1016.8 hPa | 0 mm | - | 1082 W/m² | - |
| 1777479114 | 30.56° C | 52% | 1016.9 hPa | 0 mm | - | 1066 W/m² | - |
| 1777478811 | 30.56° C | 53% | 1016.9 hPa | 0 mm | - | 1026 W/m² | - |
| 1777478507 | 30.56° C | 53% | 1016.9 hPa | 0 mm | - | 994 W/m² | - |
| 1777478204 | 31.11° C | 52% | 1016.8 hPa | 0 mm | - | 990 W/m² | - |
| 1777477900 | 30.56° C | 53% | 1016.9 hPa | 0 mm | - | 958 W/m² | - |
| 1777477596 | 31.11° C | 50% | 1016.9 hPa | 0 mm | - | 943 W/m² | - |
| 1777477292 | 30° C | 58% | 1017 hPa | 0 mm | - | 953 W/m² | - |
| 1777476989 | 29.44° C | 55% | 1017 hPa | 0 mm | - | 953 W/m² | - |
| 1777476687 | 28.89° C | 58% | 1017 hPa | 0 mm | - | 329 W/m² | - |
| 1777476383 | 29.44° C | 57% | 1017.1 hPa | 0 mm | - | 931 W/m² | - |
| 1777476081 | 28.89° C | 60% | 1017.3 hPa | 0 mm | - | 775 W/m² | - |
| 1777475781 | 27.78° C | 64% | 1017.2 hPa | 0 mm | - | 923 W/m² | - |
| 1777475478 | 27.78° C | 62% | 1017.4 hPa | 0 mm | - | 122 W/m² | - |
| 1777475174 | 28.33° C | 61% | 1017.2 hPa | 0 mm | - | 163 W/m² | - |
* Rain latest hour (hover to see other rain measurements)
** Current wind speed in m/s (hover to see current wind gust speed)